sensor_id;sensor_type;location;lat;lon;timestamp;P1;durP1;ratioP1;P2;durP2;ratioP2
25525;SDS011;13424;48.424;11.258;2023-08-21T00:01:36;13.93;;;11.45;;
25525;SDS011;13424;48.424;11.258;2023-08-21T00:04:02;12.75;;;11.48;;
25525;SDS011;13424;48.424;11.258;2023-08-21T00:06:28;12.00;;;10.90;;
25525;SDS011;13424;48.424;11.258;2023-08-21T00:08:54;15.48;;;12.38;;
25525;SDS011;13424;48.424;11.258;2023-08-21T00:11:20;12.15;;;11.05;;
25525;SDS011;13424;48.424;11.258;2023-08-21T00:13:46;14.20;;;12.55;;
25525;SDS011;13424;48.424;11.258;2023-08-21T00:16:16;11.70;;;10.60;;
25525;SDS011;13424;48.424;11.258;2023-08-21T00:18:43;12.75;;;11.45;;
25525;SDS011;13424;48.424;11.258;2023-08-21T00:21:09;12.57;;;11.35;;
25525;SDS011;13424;48.424;11.258;2023-08-21T00:23:35;13.60;;;11.30;;
25525;SDS011;13424;48.424;11.258;2023-08-21T00:26:01;13.73;;;12.40;;
25525;SDS011;13424;48.424;11.258;2023-08-21T00:28:27;15.63;;;13.85;;
25525;SDS011;13424;48.424;11.258;2023-08-21T00:31:05;19.00;;;14.25;;
25525;SDS011;13424;48.424;11.258;2023-08-21T00:33:31;15.07;;;13.68;;
25525;SDS011;13424;48.424;11.258;2023-08-21T00:35:58;15.65;;;13.80;;
25525;SDS011;13424;48.424;11.258;2023-08-21T00:38:24;24.42;;;15.30;;
25525;SDS011;13424;48.424;11.258;2023-08-21T00:40:51;18.63;;;15.90;;
25525;SDS011;13424;48.424;11.258;2023-08-21T00:43:18;18.42;;;16.02;;
25525;SDS011;13424;48.424;11.258;2023-08-21T00:45:45;16.92;;;15.30;;
25525;SDS011;13424;48.424;11.258;2023-08-21T00:48:13;17.45;;;14.82;;
25525;SDS011;13424;48.424;11.258;2023-08-21T00:50:40;17.23;;;14.93;;
25525;SDS011;13424;48.424;11.258;2023-08-21T00:53:07;18.10;;;14.35;;
25525;SDS011;13424;48.424;11.258;2023-08-21T00:55:33;18.05;;;16.20;;
25525;SDS011;13424;48.424;11.258;2023-08-21T00:57:59;20.58;;;16.50;;
25525;SDS011;13424;48.424;11.258;2023-08-21T01:00:28;19.27;;;17.10;;
25525;SDS011;13424;48.424;11.258;2023-08-21T01:02:55;18.60;;;15.95;;
25525;SDS011;13424;48.424;11.258;2023-08-21T01:05:22;17.00;;;15.35;;
25525;SDS011;13424;48.424;11.258;2023-08-21T01:08:19;16.60;;;14.13;;
25525;SDS011;13424;48.424;11.258;2023-08-21T01:14:28;14.43;;;12.63;;
25525;SDS011;13424;48.424;11.258;2023-08-21T01:17:03;15.48;;;12.55;;
25525;SDS011;13424;48.424;11.258;2023-08-21T01:19:36;16.55;;;14.85;;
25525;SDS011;13424;48.424;11.258;2023-08-21T01:22:06;17.85;;;13.40;;
25525;SDS011;13424;48.424;11.258;2023-08-21T01:24:32;18.00;;;15.50;;
25525;SDS011;13424;48.424;11.258;2023-08-21T01:26:59;17.40;;;14.43;;
25525;SDS011;13424;48.424;11.258;2023-08-21T01:29:25;15.52;;;13.70;;
25525;SDS011;13424;48.424;11.258;2023-08-21T01:35:05;14.55;;;12.93;;
25525;SDS011;13424;48.424;11.258;2023-08-21T01:37:32;17.77;;;14.50;;
25525;SDS011;13424;48.424;11.258;2023-08-21T01:39:59;15.88;;;13.90;;
25525;SDS011;13424;48.424;11.258;2023-08-21T01:42:25;15.57;;;14.00;;
25525;SDS011;13424;48.424;11.258;2023-08-21T01:44:51;18.55;;;14.50;;
25525;SDS011;13424;48.424;11.258;2023-08-21T01:47:17;16.90;;;14.93;;
25525;SDS011;13424;48.424;11.258;2023-08-21T01:49:43;15.63;;;13.95;;
25525;SDS011;13424;48.424;11.258;2023-08-21T01:52:09;16.60;;;13.90;;
25525;SDS011;13424;48.424;11.258;2023-08-21T01:54:35;16.33;;;14.52;;
25525;SDS011;13424;48.424;11.258;2023-08-21T01:57:01;16.15;;;14.45;;
25525;SDS011;13424;48.424;11.258;2023-08-21T01:59:28;18.33;;;16.50;;
25525;SDS011;13424;48.424;11.258;2023-08-21T02:02:03;20.20;;;16.75;;
25525;SDS011;13424;48.424;11.258;2023-08-21T02:04:30;18.45;;;16.55;;
25525;SDS011;13424;48.424;11.258;2023-08-21T02:06:56;18.05;;;16.15;;
25525;SDS011;13424;48.424;11.258;2023-08-21T02:09:22;19.15;;;16.25;;
25525;SDS011;13424;48.424;11.258;2023-08-21T02:11:48;17.80;;;16.00;;
25525;SDS011;13424;48.424;11.258;2023-08-21T02:14:14;23.15;;;17.25;;
25525;SDS011;13424;48.424;11.258;2023-08-21T02:16:40;20.30;;;18.10;;
25525;SDS011;13424;48.424;11.258;2023-08-21T02:19:06;18.48;;;16.38;;
25525;SDS011;13424;48.424;11.258;2023-08-21T02:21:34;16.65;;;14.98;;
25525;SDS011;13424;48.424;11.258;2023-08-21T02:24:02;18.45;;;16.55;;
25525;SDS011;13424;48.424;11.258;2023-08-21T02:26:28;17.17;;;15.43;;
25525;SDS011;13424;48.424;11.258;2023-08-21T02:28:54;18.30;;;14.95;;
25525;SDS011;13424;48.424;11.258;2023-08-21T02:31:20;17.10;;;15.27;;
25525;SDS011;13424;48.424;11.258;2023-08-21T02:33:55;18.40;;;16.50;;
25525;SDS011;13424;48.424;11.258;2023-08-21T02:36:21;20.23;;;16.08;;
25525;SDS011;13424;48.424;11.258;2023-08-21T02:38:47;20.70;;;17.85;;
25525;SDS011;13424;48.424;11.258;2023-08-21T02:41:15;18.73;;;15.32;;
25525;SDS011;13424;48.424;11.258;2023-08-21T02:43:41;16.33;;;14.63;;
25525;SDS011;13424;48.424;11.258;2023-08-21T02:46:07;17.08;;;15.27;;
25525;SDS011;13424;48.424;11.258;2023-08-21T02:48:33;18.50;;;15.07;;
25525;SDS011;13424;48.424;11.258;2023-08-21T02:51:00;19.35;;;16.05;;
25525;SDS011;13424;48.424;11.258;2023-08-21T02:53:28;20.75;;;17.13;;
25525;SDS011;13424;48.424;11.258;2023-08-21T02:55:54;22.42;;;16.92;;
25525;SDS011;13424;48.424;11.258;2023-08-21T02:58:20;18.35;;;15.15;;
25525;SDS011;13424;48.424;11.258;2023-08-21T03:00:47;20.58;;;17.63;;
25525;SDS011;13424;48.424;11.258;2023-08-21T03:03:12;18.63;;;16.63;;
25525;SDS011;13424;48.424;11.258;2023-08-21T03:05:38;20.50;;;17.92;;
25525;SDS011;13424;48.424;11.258;2023-08-21T03:08:05;18.65;;;16.75;;
25525;SDS011;13424;48.424;11.258;2023-08-21T03:10:30;18.88;;;16.90;;
25525;SDS011;13424;48.424;11.258;2023-08-21T03:12:59;19.83;;;17.30;;
25525;SDS011;13424;48.424;11.258;2023-08-21T03:15:25;22.20;;;16.90;;
25525;SDS011;13424;48.424;11.258;2023-08-21T03:17:51;21.75;;;17.73;;
25525;SDS011;13424;48.424;11.258;2023-08-21T03:20:17;24.45;;;19.10;;
25525;SDS011;13424;48.424;11.258;2023-08-21T03:22:44;20.20;;;17.98;;
25525;SDS011;13424;48.424;11.258;2023-08-21T03:25:10;21.65;;;18.40;;
25525;SDS011;13424;48.424;11.258;2023-08-21T03:27:36;20.00;;;17.63;;
25525;SDS011;13424;48.424;11.258;2023-08-21T03:33:45;20.83;;;16.73;;
25525;SDS011;13424;48.424;11.258;2023-08-21T03:36:13;17.98;;;15.73;;
25525;SDS011;13424;48.424;11.258;2023-08-21T03:38:40;20.02;;;15.57;;
25525;SDS011;13424;48.424;11.258;2023-08-21T03:41:07;19.42;;;15.68;;
25525;SDS011;13424;48.424;11.258;2023-08-21T03:43:34;17.85;;;15.88;;
25525;SDS011;13424;48.424;11.258;2023-08-21T03:46:00;19.63;;;13.93;;
25525;SDS011;13424;48.424;11.258;2023-08-21T03:48:26;21.50;;;15.68;;
25525;SDS011;13424;48.424;11.258;2023-08-21T03:50:52;17.45;;;15.18;;
25525;SDS011;13424;48.424;11.258;2023-08-21T03:56:30;22.75;;;16.45;;
25525;SDS011;13424;48.424;11.258;2023-08-21T03:58:56;18.52;;;15.98;;
25525;SDS011;13424;48.424;11.258;2023-08-21T04:01:22;18.00;;;15.43;;
25525;SDS011;13424;48.424;11.258;2023-08-21T04:03:48;18.35;;;14.95;;
25525;SDS011;13424;48.424;11.258;2023-08-21T04:06:15;17.73;;;14.82;;
25525;SDS011;13424;48.424;11.258;2023-08-21T04:08:40;19.45;;;15.27;;
25525;SDS011;13424;48.424;11.258;2023-08-21T04:11:06;19.50;;;15.55;;
25525;SDS011;13424;48.424;11.258;2023-08-21T04:13:32;19.88;;;16.88;;
25525;SDS011;13424;48.424;11.258;2023-08-21T04:15:59;20.65;;;16.30;;
25525;SDS011;13424;48.424;11.258;2023-08-21T04:18:25;20.92;;;18.63;;
25525;SDS011;13424;48.424;11.258;2023-08-21T04:20:51;19.38;;;16.42;;
25525;SDS011;13424;48.424;11.258;2023-08-21T04:23:17;19.13;;;17.00;;
25525;SDS011;13424;48.424;11.258;2023-08-21T04:25:46;23.63;;;18.85;;
25525;SDS011;13424;48.424;11.258;2023-08-21T04:28:12;23.08;;;18.35;;
25525;SDS011;13424;48.424;11.258;2023-08-21T04:30:42;21.85;;;19.48;;
25525;SDS011;13424;48.424;11.258;2023-08-21T04:33:08;21.60;;;17.95;;
25525;SDS011;13424;48.424;11.258;2023-08-21T04:35:38;22.70;;;19.30;;
25525;SDS011;13424;48.424;11.258;2023-08-21T04:38:04;20.48;;;18.10;;
25525;SDS011;13424;48.424;11.258;2023-08-21T04:40:30;26.00;;;19.38;;
25525;SDS011;13424;48.424;11.258;2023-08-21T04:42:57;22.88;;;19.40;;
25525;SDS011;13424;48.424;11.258;2023-08-21T04:45:24;21.25;;;18.95;;
25525;SDS011;13424;48.424;11.258;2023-08-21T04:47:49;22.95;;;18.55;;
25525;SDS011;13424;48.424;11.258;2023-08-21T04:50:15;24.70;;;18.25;;
25525;SDS011;13424;48.424;11.258;2023-08-21T04:52:42;19.25;;;17.15;;
25525;SDS011;13424;48.424;11.258;2023-08-21T04:55:08;20.15;;;18.05;;
25525;SDS011;13424;48.424;11.258;2023-08-21T04:57:36;25.27;;;18.45;;
25525;SDS011;13424;48.424;11.258;2023-08-21T05:00:06;20.58;;;18.33;;
25525;SDS011;13424;48.424;11.258;2023-08-21T05:02:37;27.10;;;19.70;;
25525;SDS011;13424;48.424;11.258;2023-08-21T05:05:03;21.38;;;19.20;;
25525;SDS011;13424;48.424;11.258;2023-08-21T05:07:30;20.65;;;18.27;;
25525;SDS011;13424;48.424;11.258;2023-08-21T05:09:59;19.73;;;17.63;;
25525;SDS011;13424;48.424;11.258;2023-08-21T05:12:27;23.13;;;19.63;;
25525;SDS011;13424;48.424;11.258;2023-08-21T05:14:53;19.80;;;17.70;;
25525;SDS011;13424;48.424;11.258;2023-08-21T05:17:19;20.02;;;17.85;;
25525;SDS011;13424;48.424;11.258;2023-08-21T05:19:45;20.08;;;17.98;;
25525;SDS011;13424;48.424;11.258;2023-08-21T05:22:11;23.40;;;19.48;;
25525;SDS011;13424;48.424;11.258;2023-08-21T05:24:37;24.00;;;20.25;;
25525;SDS011;13424;48.424;11.258;2023-08-21T05:27:05;25.35;;;19.90;;
25525;SDS011;13424;48.424;11.258;2023-08-21T05:29:31;22.02;;;19.13;;
25525;SDS011;13424;48.424;11.258;2023-08-21T05:31:57;22.27;;;18.35;;
25525;SDS011;13424;48.424;11.258;2023-08-21T05:34:23;22.17;;;19.08;;
25525;SDS011;13424;48.424;11.258;2023-08-21T05:36:51;31.70;;;21.83;;
25525;SDS011;13424;48.424;11.258;2023-08-21T05:39:20;20.73;;;17.92;;
25525;SDS011;13424;48.424;11.258;2023-08-21T05:41:47;25.40;;;18.80;;
25525;SDS011;13424;48.424;11.258;2023-08-21T05:44:14;21.25;;;18.88;;
25525;SDS011;13424;48.424;11.258;2023-08-21T05:46:40;22.17;;;17.75;;
25525;SDS011;13424;48.424;11.258;2023-08-21T05:49:06;20.92;;;18.63;;
25525;SDS011;13424;48.424;11.258;2023-08-21T05:51:32;23.73;;;17.95;;
25525;SDS011;13424;48.424;11.258;2023-08-21T05:53:59;19.75;;;17.75;;
25525;SDS011;13424;48.424;11.258;2023-08-21T05:56:25;20.83;;;18.15;;
25525;SDS011;13424;48.424;11.258;2023-08-21T05:58:51;20.17;;;16.80;;
25525;SDS011;13424;48.424;11.258;2023-08-21T06:01:17;19.95;;;16.20;;
25525;SDS011;13424;48.424;11.258;2023-08-21T06:03:43;19.95;;;18.00;;
25525;SDS011;13424;48.424;11.258;2023-08-21T06:06:16;20.80;;;16.35;;
25525;SDS011;13424;48.424;11.258;2023-08-21T06:08:42;22.92;;;19.33;;
25525;SDS011;13424;48.424;11.258;2023-08-21T06:11:09;22.25;;;17.65;;
25525;SDS011;13424;48.424;11.258;2023-08-21T06:13:35;19.48;;;17.42;;
25525;SDS011;13424;48.424;11.258;2023-08-21T06:16:01;19.20;;;16.90;;
25525;SDS011;13424;48.424;11.258;2023-08-21T06:18:28;19.85;;;17.75;;
25525;SDS011;13424;48.424;11.258;2023-08-21T06:20:54;18.80;;;16.90;;
25525;SDS011;13424;48.424;11.258;2023-08-21T06:26:54;19.10;;;16.70;;
25525;SDS011;13424;48.424;11.258;2023-08-21T06:29:20;22.45;;;17.15;;
25525;SDS011;13424;48.424;11.258;2023-08-21T06:31:46;19.80;;;17.35;;
25525;SDS011;13424;48.424;11.258;2023-08-21T06:34:12;20.27;;;17.98;;
25525;SDS011;13424;48.424;11.258;2023-08-21T06:36:38;19.75;;;17.58;;
25525;SDS011;13424;48.424;11.258;2023-08-21T06:39:04;20.85;;;17.02;;
25525;SDS011;13424;48.424;11.258;2023-08-21T06:41:30;18.20;;;16.25;;
25525;SDS011;13424;48.424;11.258;2023-08-21T06:43:57;19.05;;;17.13;;
25525;SDS011;13424;48.424;11.258;2023-08-21T06:46:23;20.88;;;17.33;;
25525;SDS011;13424;48.424;11.258;2023-08-21T06:48:49;18.20;;;16.30;;
25525;SDS011;13424;48.424;11.258;2023-08-21T06:51:16;18.13;;;16.15;;
25525;SDS011;13424;48.424;11.258;2023-08-21T06:53:42;19.73;;;17.42;;
25525;SDS011;13424;48.424;11.258;2023-08-21T06:56:08;23.40;;;17.17;;
25525;SDS011;13424;48.424;11.258;2023-08-21T06:58:34;20.50;;;17.05;;
25525;SDS011;13424;48.424;11.258;2023-08-21T07:01:00;18.63;;;16.65;;
25525;SDS011;13424;48.424;11.258;2023-08-21T07:03:26;16.45;;;14.75;;
25525;SDS011;13424;48.424;11.258;2023-08-21T07:05:56;17.17;;;15.35;;
25525;SDS011;13424;48.424;11.258;2023-08-21T07:08:24;18.30;;;15.90;;
25525;SDS011;13424;48.424;11.258;2023-08-21T07:10:51;14.88;;;13.35;;
25525;SDS011;13424;48.424;11.258;2023-08-21T07:13:18;14.93;;;13.32;;
25525;SDS011;13424;48.424;11.258;2023-08-21T07:15:45;16.83;;;14.57;;
25525;SDS011;13424;48.424;11.258;2023-08-21T07:18:13;16.23;;;14.73;;
25525;SDS011;13424;48.424;11.258;2023-08-21T07:24:43;17.77;;;13.70;;
25525;SDS011;13424;48.424;11.258;2023-08-21T07:27:09;15.77;;;12.85;;
25525;SDS011;13424;48.424;11.258;2023-08-21T07:29:35;17.13;;;14.30;;
25525;SDS011;13424;48.424;11.258;2023-08-21T07:32:01;19.73;;;14.88;;
25525;SDS011;13424;48.424;11.258;2023-08-21T07:34:27;15.57;;;14.07;;
25525;SDS011;13424;48.424;11.258;2023-08-21T07:36:53;16.55;;;14.82;;
25525;SDS011;13424;48.424;11.258;2023-08-21T07:39:19;16.30;;;13.30;;
25525;SDS011;13424;48.424;11.258;2023-08-21T07:41:45;15.90;;;14.25;;
25525;SDS011;13424;48.424;11.258;2023-08-21T07:44:11;19.85;;;12.82;;
25525;SDS011;13424;48.424;11.258;2023-08-21T07:46:37;18.60;;;14.27;;
25525;SDS011;13424;48.424;11.258;2023-08-21T07:49:03;14.50;;;13.13;;
25525;SDS011;13424;48.424;11.258;2023-08-21T07:51:29;15.15;;;12.55;;
25525;SDS011;13424;48.424;11.258;2023-08-21T07:53:55;14.55;;;11.90;;
25525;SDS011;13424;48.424;11.258;2023-08-21T08:00:12;16.52;;;11.02;;
25525;SDS011;13424;48.424;11.258;2023-08-21T08:02:39;13.63;;;11.55;;
25525;SDS011;13424;48.424;11.258;2023-08-21T08:05:05;17.35;;;11.88;;
25525;SDS011;13424;48.424;11.258;2023-08-21T08:07:32;14.77;;;12.20;;
25525;SDS011;13424;48.424;11.258;2023-08-21T08:09:58;16.63;;;12.60;;
25525;SDS011;13424;48.424;11.258;2023-08-21T08:12:24;12.93;;;11.25;;
25525;SDS011;13424;48.424;11.258;2023-08-21T08:14:50;12.02;;;10.77;;
25525;SDS011;13424;48.424;11.258;2023-08-21T08:17:25;17.67;;;10.45;;
25525;SDS011;13424;48.424;11.258;2023-08-21T08:19:51;12.57;;;11.40;;
25525;SDS011;13424;48.424;11.258;2023-08-21T08:22:17;15.02;;;11.07;;
25525;SDS011;13424;48.424;11.258;2023-08-21T08:24:43;11.60;;;10.50;;
25525;SDS011;13424;48.424;11.258;2023-08-21T08:27:09;12.63;;;11.38;;
25525;SDS011;13424;48.424;11.258;2023-08-21T08:29:35;10.98;;;9.88;;
25525;SDS011;13424;48.424;11.258;2023-08-21T08:32:01;12.30;;;11.10;;
25525;SDS011;13424;48.424;11.258;2023-08-21T08:34:30;11.57;;;10.35;;
25525;SDS011;13424;48.424;11.258;2023-08-21T08:36:56;13.25;;;12.00;;
25525;SDS011;13424;48.424;11.258;2023-08-21T08:39:23;12.82;;;11.63;;
25525;SDS011;13424;48.424;11.258;2023-08-21T08:42:07;13.25;;;11.07;;
25525;SDS011;13424;48.424;11.258;2023-08-21T08:44:36;14.13;;;11.15;;
25525;SDS011;13424;48.424;11.258;2023-08-21T08:47:03;12.48;;;11.25;;
25525;SDS011;13424;48.424;11.258;2023-08-21T08:49:30;11.73;;;10.63;;
25525;SDS011;13424;48.424;11.258;2023-08-21T08:51:57;11.43;;;10.43;;
25525;SDS011;13424;48.424;11.258;2023-08-21T08:54:25;13.07;;;11.82;;
25525;SDS011;13424;48.424;11.258;2023-08-21T08:56:53;12.05;;;10.55;;
25525;SDS011;13424;48.424;11.258;2023-08-21T08:59:19;11.75;;;10.57;;
25525;SDS011;13424;48.424;11.258;2023-08-21T09:01:45;15.15;;;11.80;;
25525;SDS011;13424;48.424;11.258;2023-08-21T09:04:12;16.33;;;10.88;;
25525;SDS011;13424;48.424;11.258;2023-08-21T09:06:38;11.75;;;10.43;;
25525;SDS011;13424;48.424;11.258;2023-08-21T09:09:04;11.88;;;10.80;;
25525;SDS011;13424;48.424;11.258;2023-08-21T09:11:32;13.35;;;11.52;;
25525;SDS011;13424;48.424;11.258;2023-08-21T09:13:58;12.82;;;11.55;;
25525;SDS011;13424;48.424;11.258;2023-08-21T09:16:25;18.45;;;12.38;;
25525;SDS011;13424;48.424;11.258;2023-08-21T09:18:53;13.48;;;12.18;;
25525;SDS011;13424;48.424;11.258;2023-08-21T09:21:25;16.75;;;13.10;;
25525;SDS011;13424;48.424;11.258;2023-08-21T09:24:00;14.82;;;13.32;;
25525;SDS011;13424;48.424;11.258;2023-08-21T09:26:30;14.20;;;12.95;;
25525;SDS011;13424;48.424;11.258;2023-08-21T09:29:03;15.52;;;12.68;;
25525;SDS011;13424;48.424;11.258;2023-08-21T09:31:32;14.40;;;12.45;;
25525;SDS011;13424;48.424;11.258;2023-08-21T09:33:59;13.27;;;12.07;;
25525;SDS011;13424;48.424;11.258;2023-08-21T09:36:34;13.45;;;12.10;;
25525;SDS011;13424;48.424;11.258;2023-08-21T09:39:01;14.05;;;12.02;;
25525;SDS011;13424;48.424;11.258;2023-08-21T09:41:28;15.73;;;12.57;;
25525;SDS011;13424;48.424;11.258;2023-08-21T09:44:01;13.40;;;12.13;;
25525;SDS011;13424;48.424;11.258;2023-08-21T09:46:29;13.55;;;12.13;;
25525;SDS011;13424;48.424;11.258;2023-08-21T09:48:55;14.43;;;12.93;;
25525;SDS011;13424;48.424;11.258;2023-08-21T09:51:21;14.48;;;12.70;;
25525;SDS011;13424;48.424;11.258;2023-08-21T09:53:50;13.50;;;12.18;;
25525;SDS011;13424;48.424;11.258;2023-08-21T10:00:21;13.85;;;11.98;;
25525;SDS011;13424;48.424;11.258;2023-08-21T10:02:50;12.95;;;11.57;;
25525;SDS011;13424;48.424;11.258;2023-08-21T10:05:17;13.40;;;11.70;;
25525;SDS011;13424;48.424;11.258;2023-08-21T10:07:48;15.35;;;12.27;;
25525;SDS011;13424;48.424;11.258;2023-08-21T10:10:16;12.10;;;10.93;;
25525;SDS011;13424;48.424;11.258;2023-08-21T10:16:24;11.80;;;10.60;;
25525;SDS011;13424;48.424;11.258;2023-08-21T10:18:51;12.50;;;11.20;;
25525;SDS011;13424;48.424;11.258;2023-08-21T10:21:19;15.32;;;11.25;;
25525;SDS011;13424;48.424;11.258;2023-08-21T10:23:51;13.95;;;11.45;;
25525;SDS011;13424;48.424;11.258;2023-08-21T10:26:21;12.80;;;11.00;;
25525;SDS011;13424;48.424;11.258;2023-08-21T10:29:01;13.32;;;11.25;;
25525;SDS011;13424;48.424;11.258;2023-08-21T10:33:55;13.02;;;10.48;;
25525;SDS011;13424;48.424;11.258;2023-08-21T10:39:14;11.93;;;10.82;;
25525;SDS011;13424;48.424;11.258;2023-08-21T10:41:54;13.07;;;11.27;;
25525;SDS011;13424;48.424;11.258;2023-08-21T10:47:30;14.88;;;10.13;;
25525;SDS011;13424;48.424;11.258;2023-08-21T10:49:59;10.80;;;9.90;;
25525;SDS011;13424;48.424;11.258;2023-08-21T10:52:29;12.00;;;10.90;;
25525;SDS011;13424;48.424;11.258;2023-08-21T10:55:00;11.52;;;10.45;;
25525;SDS011;13424;48.424;11.258;2023-08-21T10:57:31;13.32;;;11.93;;
25525;SDS011;13424;48.424;11.258;2023-08-21T11:00:06;12.25;;;10.95;;
25525;SDS011;13424;48.424;11.258;2023-08-21T11:02:37;11.70;;;10.57;;
25525;SDS011;13424;48.424;11.258;2023-08-21T11:05:07;12.30;;;11.18;;
25525;SDS011;13424;48.424;11.258;2023-08-21T11:08:06;15.38;;;11.25;;
25525;SDS011;13424;48.424;11.258;2023-08-21T11:10:32;11.25;;;10.27;;
25525;SDS011;13424;48.424;11.258;2023-08-21T11:12:58;10.70;;;9.70;;
25525;SDS011;13424;48.424;11.258;2023-08-21T11:15:26;11.52;;;10.38;;
25525;SDS011;13424;48.424;11.258;2023-08-21T11:17:55;11.70;;;8.98;;
25525;SDS011;13424;48.424;11.258;2023-08-21T11:20:29;9.63;;;8.30;;
25525;SDS011;13424;48.424;11.258;2023-08-21T11:22:59;9.80;;;8.85;;
25525;SDS011;13424;48.424;11.258;2023-08-21T11:25:32;9.25;;;8.38;;
25525;SDS011;13424;48.424;11.258;2023-08-21T11:31:53;11.10;;;9.60;;
25525;SDS011;13424;48.424;11.258;2023-08-21T11:34:21;13.52;;;8.90;;
25525;SDS011;13424;48.424;11.258;2023-08-21T11:36:47;9.88;;;8.80;;
25525;SDS011;13424;48.424;11.258;2023-08-21T11:39:13;12.45;;;8.48;;
25525;SDS011;13424;48.424;11.258;2023-08-21T11:41:56;8.95;;;7.85;;
25525;SDS011;13424;48.424;11.258;2023-08-21T11:44:22;9.10;;;8.20;;
25525;SDS011;13424;48.424;11.258;2023-08-21T11:46:51;9.65;;;8.40;;
25525;SDS011;13424;48.424;11.258;2023-08-21T11:49:20;13.57;;;9.98;;
25525;SDS011;13424;48.424;11.258;2023-08-21T11:51:47;13.13;;;9.95;;
25525;SDS011;13424;48.424;11.258;2023-08-21T11:54:13;10.32;;;9.35;;
25525;SDS011;13424;48.424;11.258;2023-08-21T11:56:42;11.73;;;9.45;;
25525;SDS011;13424;48.424;11.258;2023-08-21T11:59:08;12.88;;;10.43;;
25525;SDS011;13424;48.424;11.258;2023-08-21T12:01:34;13.77;;;9.95;;
25525;SDS011;13424;48.424;11.258;2023-08-21T12:04:00;10.32;;;9.40;;
25525;SDS011;13424;48.424;11.258;2023-08-21T12:06:26;9.77;;;8.80;;
25525;SDS011;13424;48.424;11.258;2023-08-21T12:08:57;10.43;;;8.65;;
25525;SDS011;13424;48.424;11.258;2023-08-21T12:11:23;13.93;;;9.93;;
25525;SDS011;13424;48.424;11.258;2023-08-21T12:13:50;10.10;;;9.20;;
25525;SDS011;13424;48.424;11.258;2023-08-21T12:16:17;10.68;;;9.68;;
25525;SDS011;13424;48.424;11.258;2023-08-21T12:18:43;10.00;;;9.10;;
25525;SDS011;13424;48.424;11.258;2023-08-21T12:21:09;9.85;;;9.00;;
25525;SDS011;13424;48.424;11.258;2023-08-21T12:23:34;11.50;;;9.25;;
25525;SDS011;13424;48.424;11.258;2023-08-21T12:26:01;10.18;;;9.18;;
25525;SDS011;13424;48.424;11.258;2023-08-21T12:28:27;10.85;;;9.52;;
25525;SDS011;13424;48.424;11.258;2023-08-21T12:30:54;10.30;;;9.23;;
25525;SDS011;13424;48.424;11.258;2023-08-21T12:33:20;15.57;;;8.63;;
25525;SDS011;13424;48.424;11.258;2023-08-21T12:35:46;11.00;;;8.52;;
25525;SDS011;13424;48.424;11.258;2023-08-21T12:38:12;9.60;;;8.68;;
25525;SDS011;13424;48.424;11.258;2023-08-21T12:40:39;11.05;;;8.07;;
25525;SDS011;13424;48.424;11.258;2023-08-21T12:43:05;8.50;;;7.60;;
25525;SDS011;13424;48.424;11.258;2023-08-21T12:45:32;14.65;;;8.88;;
25525;SDS011;13424;48.424;11.258;2023-08-21T12:47:59;8.73;;;7.85;;
25525;SDS011;13424;48.424;11.258;2023-08-21T12:50:25;9.82;;;8.32;;
25525;SDS011;13424;48.424;11.258;2023-08-21T12:52:51;9.20;;;8.23;;
25525;SDS011;13424;48.424;11.258;2023-08-21T12:55:17;8.70;;;7.90;;
25525;SDS011;13424;48.424;11.258;2023-08-21T12:57:43;12.82;;;8.73;;
25525;SDS011;13424;48.424;11.258;2023-08-21T13:00:10;10.57;;;9.43;;
25525;SDS011;13424;48.424;11.258;2023-08-21T13:02:37;9.35;;;8.43;;
25525;SDS011;13424;48.424;11.258;2023-08-21T13:05:03;13.32;;;8.40;;
25525;SDS011;13424;48.424;11.258;2023-08-21T13:10:52;9.60;;;8.45;;
25525;SDS011;13424;48.424;11.258;2023-08-21T13:13:18;8.52;;;7.75;;
25525;SDS011;13424;48.424;11.258;2023-08-21T13:15:44;10.52;;;8.95;;
25525;SDS011;13424;48.424;11.258;2023-08-21T13:18:10;9.50;;;8.68;;
25525;SDS011;13424;48.424;11.258;2023-08-21T13:20:37;11.43;;;8.43;;
25525;SDS011;13424;48.424;11.258;2023-08-21T13:23:03;11.82;;;8.85;;
25525;SDS011;13424;48.424;11.258;2023-08-21T13:25:29;8.60;;;7.80;;
25525;SDS011;13424;48.424;11.258;2023-08-21T13:27:55;9.38;;;7.97;;
25525;SDS011;13424;48.424;11.258;2023-08-21T13:30:21;8.85;;;7.95;;
25525;SDS011;13424;48.424;11.258;2023-08-21T13:32:48;10.18;;;7.95;;
25525;SDS011;13424;48.424;11.258;2023-08-21T13:35:14;10.40;;;8.27;;
25525;SDS011;13424;48.424;11.258;2023-08-21T13:40:53;9.80;;;8.00;;
25525;SDS011;13424;48.424;11.258;2023-08-21T13:43:19;9.52;;;8.63;;
25525;SDS011;13424;48.424;11.258;2023-08-21T13:45:45;13.13;;;8.35;;
25525;SDS011;13424;48.424;11.258;2023-08-21T13:48:11;9.90;;;7.55;;
25525;SDS011;13424;48.424;11.258;2023-08-21T13:50:37;9.57;;;8.63;;
25525;SDS011;13424;48.424;11.258;2023-08-21T13:53:03;10.27;;;8.63;;
25525;SDS011;13424;48.424;11.258;2023-08-21T13:55:29;9.95;;;7.80;;
25525;SDS011;13424;48.424;11.258;2023-08-21T13:57:55;10.07;;;7.55;;
25525;SDS011;13424;48.424;11.258;2023-08-21T14:00:21;9.70;;;7.85;;
25525;SDS011;13424;48.424;11.258;2023-08-21T14:02:47;10.80;;;7.57;;
25525;SDS011;13424;48.424;11.258;2023-08-21T14:05:13;9.00;;;8.07;;
25525;SDS011;13424;48.424;11.258;2023-08-21T14:11:05;8.95;;;7.68;;
25525;SDS011;13424;48.424;11.258;2023-08-21T14:13:31;16.88;;;8.50;;
25525;SDS011;13424;48.424;11.258;2023-08-21T14:15:57;9.73;;;8.77;;
25525;SDS011;13424;48.424;11.258;2023-08-21T14:18:23;11.45;;;8.30;;
25525;SDS011;13424;48.424;11.258;2023-08-21T14:20:49;8.88;;;7.97;;
25525;SDS011;13424;48.424;11.258;2023-08-21T14:27:40;11.75;;;8.55;;
25525;SDS011;13424;48.424;11.258;2023-08-21T14:30:06;8.50;;;7.70;;
25525;SDS011;13424;48.424;11.258;2023-08-21T14:32:33;12.75;;;8.15;;
25525;SDS011;13424;48.424;11.258;2023-08-21T14:34:59;9.57;;;8.23;;
25525;SDS011;13424;48.424;11.258;2023-08-21T14:37:25;10.88;;;8.50;;
25525;SDS011;13424;48.424;11.258;2023-08-21T14:39:51;9.45;;;8.65;;
25525;SDS011;13424;48.424;11.258;2023-08-21T14:42:17;12.68;;;9.35;;
25525;SDS011;13424;48.424;11.258;2023-08-21T14:44:44;10.25;;;9.23;;
25525;SDS011;13424;48.424;11.258;2023-08-21T14:47:10;11.27;;;10.18;;
25525;SDS011;13424;48.424;11.258;2023-08-21T14:49:36;12.80;;;8.77;;
25525;SDS011;13424;48.424;11.258;2023-08-21T14:52:02;11.90;;;8.80;;
25525;SDS011;13424;48.424;11.258;2023-08-21T14:54:56;11.20;;;9.63;;
25525;SDS011;13424;48.424;11.258;2023-08-21T14:57:23;14.48;;;9.30;;
25525;SDS011;13424;48.424;11.258;2023-08-21T14:59:49;10.85;;;9.32;;
25525;SDS011;13424;48.424;11.258;2023-08-21T15:02:14;12.88;;;8.68;;
25525;SDS011;13424;48.424;11.258;2023-08-21T15:04:40;10.68;;;9.25;;
25525;SDS011;13424;48.424;11.258;2023-08-21T15:07:06;11.90;;;8.52;;
25525;SDS011;13424;48.424;11.258;2023-08-21T15:09:32;9.93;;;9.00;;
25525;SDS011;13424;48.424;11.258;2023-08-21T15:11:58;9.07;;;8.13;;
25525;SDS011;13424;48.424;11.258;2023-08-21T15:14:25;9.43;;;8.45;;